createdAt,value
2019-03-06T00:00:13.617Z,0.00
2019-03-06T00:01:13.557Z,0.00
2019-03-06T00:02:13.445Z,0.00
2019-03-06T00:03:13.374Z,0.00
2019-03-06T00:04:13.274Z,0.00
2019-03-06T00:05:13.188Z,0.00
2019-03-06T00:06:16.771Z,0.00
2019-03-06T00:07:13.030Z,0.00
2019-03-06T00:08:12.941Z,0.00
2019-03-06T00:09:12.848Z,0.00
2019-03-06T00:10:12.765Z,0.00
2019-03-06T00:11:12.685Z,0.00
2019-03-06T00:12:12.613Z,0.00
2019-03-06T00:13:12.510Z,0.00
2019-03-06T00:14:12.429Z,0.00
2019-03-06T00:15:12.341Z,0.00
2019-03-06T00:16:12.253Z,0.00
2019-03-06T00:17:12.185Z,0.00
2019-03-06T00:18:12.090Z,0.00
2019-03-06T00:19:11.997Z,0.00
2019-03-06T00:20:11.920Z,0.00
2019-03-06T00:21:11.858Z,0.00
2019-03-06T00:22:11.757Z,0.00
2019-03-06T00:23:11.668Z,0.00
2019-03-06T00:24:11.573Z,0.00
2019-03-06T00:25:11.495Z,0.00
2019-03-06T00:26:11.404Z,0.00
2019-03-06T00:27:11.332Z,0.00
2019-03-06T00:28:11.242Z,0.00
2019-03-06T00:29:11.145Z,0.00
2019-03-06T00:30:11.063Z,0.00
2019-03-06T00:31:10.993Z,0.00
2019-03-06T00:32:10.915Z,0.00
2019-03-06T00:33:10.813Z,0.00
2019-03-06T00:34:10.733Z,0.00
2019-03-06T00:35:10.637Z,0.00
2019-03-06T00:36:10.558Z,0.00
2019-03-06T00:37:10.495Z,0.00
2019-03-06T00:38:10.381Z,0.00
2019-03-06T00:39:10.305Z,0.00
2019-03-06T00:40:10.215Z,0.00
2019-03-06T00:41:10.135Z,0.00
2019-03-06T00:42:10.055Z,0.00
2019-03-06T00:43:09.964Z,0.00
2019-03-06T00:44:09.873Z,0.00
2019-03-06T00:45:09.799Z,0.00
2019-03-06T00:46:09.711Z,0.00
2019-03-06T00:47:09.639Z,0.00
2019-03-06T00:48:09.533Z,0.00
2019-03-06T00:49:09.460Z,0.00
2019-03-06T00:50:09.361Z,0.00
2019-03-06T00:51:09.281Z,0.00
2019-03-06T00:52:09.205Z,0.00
2019-03-06T00:53:09.117Z,0.00
2019-03-06T00:54:09.022Z,0.00
2019-03-06T00:55:08.943Z,0.00
2019-03-06T00:56:08.853Z,0.00
2019-03-06T00:57:08.788Z,0.00
2019-03-06T00:58:08.677Z,0.00
2019-03-06T00:59:08.607Z,0.00
2019-03-06T01:00:08.515Z,0.00
2019-03-06T01:01:08.433Z,0.00
2019-03-06T01:02:08.357Z,0.00
2019-03-06T01:03:08.256Z,0.00
2019-03-06T01:04:08.182Z,0.00
2019-03-06T01:05:08.087Z,0.00
2019-03-06T01:06:07.998Z,0.00
2019-03-06T01:07:07.939Z,0.00
2019-03-06T01:08:07.829Z,0.00
2019-03-06T01:09:07.746Z,0.00
2019-03-06T01:10:07.664Z,0.00
2019-03-06T01:11:07.576Z,0.00
2019-03-06T01:12:07.503Z,0.00
2019-03-06T01:13:07.411Z,0.00
2019-03-06T01:14:07.317Z,0.00
2019-03-06T01:15:07.234Z,0.00
2019-03-06T01:16:07.156Z,0.00
2019-03-06T01:17:07.077Z,0.00
2019-03-06T01:18:06.977Z,0.00
2019-03-06T01:19:06.905Z,0.00
2019-03-06T01:20:06.807Z,0.00
2019-03-06T01:21:06.730Z,0.00
2019-03-06T01:22:06.662Z,0.00
2019-03-06T01:23:06.552Z,0.00
2019-03-06T01:24:06.472Z,0.00
2019-03-06T01:25:06.381Z,0.00
2019-03-06T01:26:06.304Z,0.00
2019-03-06T01:27:06.227Z,0.00
2019-03-06T01:28:06.129Z,0.00
2019-03-06T01:29:06.046Z,0.00
2019-03-06T01:30:05.960Z,0.00
2019-03-06T01:31:05.874Z,0.00
2019-03-06T01:32:05.925Z,0.00
2019-03-06T01:33:05.699Z,0.00
2019-03-06T01:34:05.625Z,0.00
2019-03-06T01:35:05.529Z,0.00
2019-03-06T01:36:05.459Z,0.00
2019-03-06T01:37:05.368Z,0.00
2019-03-06T01:38:05.288Z,0.00
2019-03-06T01:39:05.188Z,0.00
2019-03-06T01:40:05.134Z,0.00
2019-03-06T01:41:05.018Z,0.00
2019-03-06T01:42:04.938Z,0.00
2019-03-06T01:43:04.868Z,0.00
2019-03-06T01:44:04.765Z,0.00
2019-03-06T01:45:04.677Z,0.00
2019-03-06T01:46:04.604Z,0.00
2019-03-06T01:47:04.508Z,0.00
2019-03-06T01:48:04.434Z,0.00
2019-03-06T01:49:04.342Z,0.00
2019-03-06T01:50:04.253Z,0.00
2019-03-06T01:51:04.166Z,0.00
2019-03-06T01:52:04.086Z,0.00
2019-03-06T01:53:04.009Z,0.00
2019-03-06T01:54:03.911Z,0.00
2019-03-06T01:55:03.829Z,0.00
2019-03-06T01:56:03.742Z,0.00
2019-03-06T01:57:03.671Z,0.00
2019-03-06T01:58:03.584Z,0.00
2019-03-06T01:59:03.490Z,0.00
2019-03-06T02:00:03.405Z,0.00
2019-03-06T02:01:03.321Z,0.00
2019-03-06T02:02:03.230Z,0.00
2019-03-06T02:03:03.158Z,0.00
2019-03-06T02:04:03.071Z,0.00
2019-03-06T02:05:02.978Z,0.00
2019-03-06T02:06:02.889Z,0.00
2019-03-06T02:07:02.818Z,0.00
2019-03-06T02:08:02.738Z,0.00
2019-03-06T02:09:02.634Z,0.00
2019-03-06T02:10:02.560Z,0.00
2019-03-06T02:11:02.463Z,0.00
2019-03-06T02:12:02.389Z,0.00
2019-03-06T02:13:02.318Z,0.00
2019-03-06T02:14:02.210Z,0.00
2019-03-06T02:15:02.146Z,0.00
2019-03-06T02:16:02.051Z,0.00
2019-03-06T02:17:01.966Z,0.00
2019-03-06T02:18:01.887Z,0.00
2019-03-06T02:19:01.789Z,0.00
2019-03-06T02:20:01.710Z,0.00
2019-03-06T02:21:01.612Z,0.00
2019-03-06T02:22:01.529Z,0.00
2019-03-06T02:23:01.460Z,0.00
2019-03-06T02:24:01.355Z,0.00
2019-03-06T02:25:01.280Z,0.00
2019-03-06T02:26:01.196Z,0.00
2019-03-06T02:27:01.110Z,0.00
2019-03-06T02:28:01.032Z,0.00
2019-03-06T02:29:00.939Z,0.00
2019-03-06T02:30:00.850Z,0.00
2019-03-06T02:31:00.771Z,0.00
2019-03-06T02:32:00.679Z,0.00
2019-03-06T02:33:00.611Z,0.00
2019-03-06T02:34:00.504Z,0.00
2019-03-06T02:35:00.531Z,0.00
2019-03-06T02:36:00.348Z,0.00
2019-03-06T02:37:00.257Z,0.00
2019-03-06T02:38:00.184Z,0.00
2019-03-06T02:39:00.090Z,0.00
2019-03-06T02:39:59.998Z,0.00
2019-03-06T02:40:59.916Z,0.00
2019-03-06T02:41:59.839Z,0.00
2019-03-06T02:42:59.758Z,0.00
2019-03-06T02:43:59.666Z,0.00
2019-03-06T02:44:59.581Z,0.00
2019-03-06T02:45:59.492Z,0.00
2019-03-06T02:46:59.404Z,0.00
2019-03-06T02:47:59.345Z,0.00
2019-03-06T02:48:59.233Z,0.00
2019-03-06T02:49:59.146Z,0.00
2019-03-06T02:50:59.073Z,0.00
2019-03-06T02:51:58.986Z,0.00
2019-03-06T02:52:58.917Z,0.00
2019-03-06T02:53:58.816Z,0.00
2019-03-06T02:54:58.722Z,0.00
2019-03-06T02:55:58.636Z,0.00
2019-03-06T02:56:58.577Z,0.00
2019-03-06T02:57:58.497Z,0.00
2019-03-06T02:58:58.381Z,0.00
2019-03-06T02:59:58.318Z,0.00
2019-03-06T03:00:58.213Z,0.00
2019-03-06T03:01:58.125Z,0.00
2019-03-06T03:02:58.069Z,0.00
2019-03-06T03:03:57.961Z,0.00
2019-03-06T03:04:57.872Z,0.00
2019-03-06T03:05:57.789Z,0.00
2019-03-06T03:06:57.703Z,0.00
2019-03-06T03:07:57.616Z,0.00
2019-03-06T03:08:57.552Z,0.00
2019-03-06T03:09:57.452Z,0.00
2019-03-06T03:10:57.373Z,0.00
2019-03-06T03:11:57.280Z,0.00
2019-03-06T03:12:57.203Z,0.00
2019-03-06T03:13:57.119Z,0.00
2019-03-06T03:14:57.027Z,0.00
2019-03-06T03:15:56.942Z,0.00
2019-03-06T03:16:56.862Z,0.00
2019-03-06T03:17:56.765Z,0.00
2019-03-06T03:18:56.699Z,0.00
2019-03-06T03:19:56.607Z,0.00
2019-03-06T03:20:56.514Z,0.00
2019-03-06T03:21:56.433Z,0.00
2019-03-06T03:22:56.348Z,0.00
2019-03-06T03:23:56.272Z,0.00
2019-03-06T03:24:56.177Z,0.00
2019-03-06T03:25:56.090Z,0.00
2019-03-06T03:26:56.016Z,0.00
2019-03-06T03:27:55.931Z,0.00
2019-03-06T03:28:55.845Z,0.00
2019-03-06T03:29:55.756Z,0.00
2019-03-06T03:30:55.672Z,0.00
2019-03-06T03:31:55.585Z,0.00
2019-03-06T03:32:55.507Z,0.00
2019-03-06T03:33:55.440Z,0.00
2019-03-06T03:34:55.414Z,0.00
2019-03-06T03:35:55.239Z,0.00
2019-03-06T03:36:55.166Z,0.00
2019-03-06T03:37:55.071Z,0.00
2019-03-06T03:38:55.001Z,0.00
2019-03-06T03:39:54.903Z,0.00
2019-03-06T03:40:54.839Z,0.00
2019-03-06T03:41:54.728Z,0.00
2019-03-06T03:42:54.650Z,0.00
2019-03-06T03:43:54.569Z,0.00
2019-03-06T03:44:54.519Z,0.00
2019-03-06T03:45:54.386Z,0.00
2019-03-06T03:46:54.311Z,0.00
2019-03-06T03:47:54.219Z,0.00
2019-03-06T03:48:54.158Z,0.00
2019-03-06T03:49:54.042Z,0.00
2019-03-06T03:50:53.976Z,0.00
2019-03-06T03:51:53.887Z,0.00
2019-03-06T03:52:53.806Z,0.00
2019-03-06T03:53:53.722Z,0.00
2019-03-06T03:54:53.630Z,0.00
2019-03-06T03:55:53.540Z,0.00
2019-03-06T03:56:53.458Z,0.00
2019-03-06T03:57:53.374Z,0.00
2019-03-06T03:58:53.297Z,0.00
2019-03-06T03:59:55.656Z,0.00
2019-03-06T04:00:53.127Z,0.00
2019-03-06T04:01:53.028Z,0.00
2019-03-06T04:02:52.946Z,0.00
2019-03-06T04:03:52.890Z,0.00
2019-03-06T04:04:52.775Z,0.00
2019-03-06T04:05:52.700Z,0.00
2019-03-06T04:06:52.623Z,0.00
2019-03-06T04:07:52.528Z,0.00
2019-03-06T04:08:52.451Z,0.00
2019-03-06T04:09:52.362Z,0.00
2019-03-06T04:10:52.275Z,0.00
2019-03-06T04:11:52.192Z,0.00
2019-03-06T04:12:52.096Z,0.00
2019-03-06T04:13:52.033Z,0.00
2019-03-06T04:14:51.937Z,0.00
2019-03-06T04:15:51.841Z,0.00
2019-03-06T04:16:51.757Z,0.00
2019-03-06T04:17:51.681Z,0.00
2019-03-06T04:18:51.613Z,0.00
2019-03-06T04:19:51.533Z,0.00
2019-03-06T04:20:51.422Z,0.00
2019-03-06T04:21:51.345Z,0.00
2019-03-06T04:22:51.249Z,0.00
2019-03-06T04:23:51.186Z,0.00
2019-03-06T04:24:51.085Z,0.00
2019-03-06T04:25:50.997Z,0.00
2019-03-06T04:26:50.916Z,0.00
2019-03-06T04:27:50.838Z,0.00
2019-03-06T04:28:50.756Z,0.00
2019-03-06T04:29:50.661Z,0.00
2019-03-06T04:30:50.584Z,0.00
2019-03-06T04:31:50.492Z,0.00
2019-03-06T04:32:50.405Z,0.00
2019-03-06T04:33:50.441Z,0.00
2019-03-06T04:34:50.233Z,0.00
2019-03-06T04:35:50.149Z,0.00
2019-03-06T04:36:50.074Z,0.00
2019-03-06T04:37:49.980Z,0.00
2019-03-06T04:38:49.902Z,0.00
2019-03-06T04:39:49.838Z,0.00
2019-03-06T04:40:49.724Z,0.00
2019-03-06T04:41:49.638Z,0.00
2019-03-06T04:42:49.567Z,0.00
2019-03-06T04:43:49.472Z,0.00
2019-03-06T04:44:49.398Z,0.00
2019-03-06T04:45:49.384Z,0.00
2019-03-06T04:46:49.220Z,0.00
2019-03-06T04:47:49.139Z,0.00
2019-03-06T04:48:49.046Z,0.00
2019-03-06T04:49:52.641Z,0.00
2019-03-06T04:50:48.878Z,0.00
2019-03-06T04:51:48.808Z,0.00
2019-03-06T04:52:48.705Z,0.00
2019-03-06T04:53:48.630Z,0.00
2019-03-06T04:54:48.554Z,0.00
2019-03-06T04:55:48.463Z,0.00
2019-03-06T04:56:48.372Z,0.00
2019-03-06T04:57:48.289Z,0.00
2019-03-06T04:58:48.199Z,0.00
2019-03-06T04:59:48.136Z,0.00
2019-03-06T05:00:48.029Z,0.00
2019-03-06T05:01:47.946Z,0.00
2019-03-06T05:02:47.860Z,0.00
2019-03-06T05:03:47.779Z,0.00
2019-03-06T05:04:47.710Z,0.00
2019-03-06T05:05:47.606Z,0.00
2019-03-06T05:06:47.520Z,0.00
2019-03-06T05:07:47.441Z,0.00
2019-03-06T05:08:47.352Z,0.00
2019-03-06T05:09:47.289Z,0.00
2019-03-06T05:10:47.189Z,0.00
2019-03-06T05:11:47.101Z,0.00
2019-03-06T05:12:47.014Z,0.00
2019-03-06T05:13:46.924Z,0.00
2019-03-06T05:14:46.858Z,0.00
2019-03-06T05:15:46.766Z,0.00
2019-03-06T05:16:46.681Z,0.00
2019-03-06T05:17:46.594Z,0.00
2019-03-06T05:18:46.503Z,0.00
2019-03-06T05:19:46.450Z,0.00
2019-03-06T05:20:46.362Z,0.00
2019-03-06T05:21:46.277Z,0.00
2019-03-06T05:22:46.158Z,0.00
2019-03-06T05:23:46.185Z,0.00
2019-03-06T05:24:46.006Z,0.00
2019-03-06T05:25:45.908Z,0.00
2019-03-06T05:26:45.907Z,0.00
2019-03-06T05:27:45.740Z,0.00
2019-03-06T05:28:45.653Z,0.00
2019-03-06T05:29:45.647Z,0.00
2019-03-06T05:30:45.484Z,0.00
2019-03-06T05:31:45.400Z,0.00
2019-03-06T05:32:45.327Z,0.00
2019-03-06T05:33:45.227Z,0.00
2019-03-06T05:34:45.272Z,4.00
2019-03-06T05:35:45.060Z,4.00
2019-03-06T05:36:44.975Z,4.00
2019-03-06T05:37:44.954Z,0.00
2019-03-06T05:38:44.815Z,4.00
2019-03-06T05:39:44.733Z,4.00
2019-03-06T05:40:44.668Z,8.00
2019-03-06T05:41:44.551Z,8.00
2019-03-06T05:42:44.467Z,8.00
2019-03-06T05:43:44.487Z,12.00
2019-03-06T05:44:44.308Z,12.00
2019-03-06T05:45:44.212Z,16.00
2019-03-06T05:46:44.200Z,16.00
2019-03-06T05:47:44.039Z,20.00
2019-03-06T05:48:43.958Z,24.00
2019-03-06T05:49:43.897Z,24.00
2019-03-06T05:50:43.785Z,32.00
2019-03-06T05:51:43.703Z,32.00
2019-03-06T05:52:43.626Z,40.00
2019-03-06T05:53:43.529Z,48.00
2019-03-06T05:54:43.468Z,52.00
2019-03-06T05:55:43.370Z,60.00
2019-03-06T05:56:43.277Z,68.00
2019-03-06T05:57:43.212Z,80.00
2019-03-06T05:58:43.115Z,88.00
2019-03-06T05:59:43.060Z,100.00
2019-03-06T06:00:42.942Z,112.00
2019-03-06T06:01:42.855Z,124.00
2019-03-06T06:02:42.773Z,132.00
2019-03-06T06:03:42.684Z,144.00
2019-03-06T06:04:42.597Z,156.00
2019-03-06T06:05:42.533Z,172.00
2019-03-06T06:06:42.437Z,184.00
2019-03-06T06:07:42.343Z,200.00
2019-03-06T06:08:42.299Z,212.00
2019-03-06T06:09:42.168Z,232.00
2019-03-06T06:10:42.104Z,256.00
2019-03-06T06:11:42.116Z,280.00
2019-03-06T06:12:41.921Z,304.00
2019-03-06T06:13:41.838Z,328.00
2019-03-06T06:14:41.829Z,352.00
2019-03-06T06:15:41.682Z,376.00
2019-03-06T06:16:41.581Z,396.00
2019-03-06T06:17:43.594Z,424.00
2019-03-06T06:18:41.410Z,456.00
2019-03-06T06:19:41.351Z,496.00
2019-03-06T06:20:41.255Z,532.00
2019-03-06T06:21:41.157Z,576.00
2019-03-06T06:22:41.182Z,620.00
2019-03-06T06:23:40.987Z,668.00
2019-03-06T06:24:40.914Z,720.00
2019-03-06T06:25:40.913Z,776.00
2019-03-06T06:26:40.733Z,824.00
2019-03-06T06:27:40.645Z,868.00
2019-03-06T06:28:40.877Z,908.00
2019-03-06T06:29:40.475Z,944.00
2019-03-06T06:30:40.407Z,980.00
2019-03-06T06:31:40.410Z,1016.00
2019-03-06T06:32:40.227Z,1052.00
2019-03-06T06:33:40.142Z,1096.00
2019-03-06T06:34:40.123Z,1148.00
2019-03-06T06:35:39.987Z,1200.00
2019-03-06T06:36:39.936Z,1264.00
2019-03-06T06:37:39.838Z,1324.00
2019-03-06T06:38:40.885Z,1384.00
2019-03-06T06:39:39.633Z,1448.00
2019-03-06T06:40:39.577Z,1508.00
2019-03-06T06:41:39.465Z,1576.00
2019-03-06T06:42:39.380Z,1640.00
2019-03-06T06:43:39.302Z,1708.00
2019-03-06T06:44:39.211Z,1792.00
2019-03-06T06:45:39.145Z,1892.00
2019-03-06T06:46:39.040Z,1996.00
2019-03-06T06:47:38.958Z,2112.00
2019-03-06T06:48:38.894Z,2232.00
2019-03-06T06:49:38.790Z,2368.00
2019-03-06T06:50:38.714Z,2520.00
2019-03-06T06:51:38.624Z,2688.00
2019-03-06T06:52:38.548Z,2868.00
2019-03-06T06:53:38.449Z,3044.00
2019-03-06T06:54:38.369Z,3228.00
2019-03-06T06:55:38.313Z,3408.00
2019-03-06T06:56:38.204Z,3600.00
2019-03-06T06:57:38.119Z,3804.00
2019-03-06T06:58:38.026Z,4008.00
2019-03-06T06:59:37.941Z,4208.00
2019-03-06T07:00:37.891Z,4396.00
2019-03-06T07:01:37.787Z,4580.00
2019-03-06T07:02:37.689Z,4756.00
2019-03-06T07:03:37.610Z,4936.00
2019-03-06T07:04:37.520Z,5132.00
2019-03-06T07:05:37.449Z,5348.00
2019-03-06T07:06:37.363Z,5584.00
2019-03-06T07:07:37.272Z,5820.00
2019-03-06T07:08:37.188Z,6016.00
2019-03-06T07:09:37.100Z,6156.00
2019-03-06T07:10:37.039Z,6240.00
2019-03-06T07:11:36.931Z,6296.00
2019-03-06T07:12:36.855Z,6316.00
2019-03-06T07:13:36.757Z,6308.00
2019-03-06T07:14:36.684Z,6284.00
2019-03-06T07:15:36.614Z,6276.00
2019-03-06T07:16:36.515Z,6284.00
2019-03-06T07:17:36.431Z,6320.00
2019-03-06T07:18:36.338Z,6256.00
2019-03-06T07:19:36.260Z,6120.00
2019-03-06T07:20:36.184Z,5996.00
2019-03-06T07:21:36.126Z,5912.00
2019-03-06T07:22:36.008Z,5840.00
2019-03-06T07:23:35.921Z,5804.00
2019-03-06T07:24:35.840Z,5776.00
2019-03-06T07:25:35.775Z,5736.00
2019-03-06T07:26:35.667Z,5672.00
2019-03-06T07:27:35.581Z,5616.00
2019-03-06T07:28:35.512Z,5600.00
2019-03-06T07:29:35.413Z,5652.00
2019-03-06T07:30:35.369Z,5752.00
2019-03-06T07:31:35.256Z,5956.00
2019-03-06T07:32:35.163Z,6336.00
2019-03-06T07:33:35.077Z,6880.00
2019-03-06T07:34:34.998Z,7440.00
2019-03-06T07:35:34.909Z,7900.00
2019-03-06T07:36:34.841Z,8144.00
2019-03-06T07:37:34.745Z,8204.00
2019-03-06T07:38:34.658Z,8220.00
2019-03-06T07:39:34.578Z,8256.00
2019-03-06T07:40:34.490Z,8388.00
2019-03-06T07:41:34.424Z,8756.00
2019-03-06T07:42:34.320Z,9204.00
2019-03-06T07:43:34.243Z,9816.00
2019-03-06T07:44:34.160Z,10584.00
2019-03-06T07:45:34.077Z,11008.00
2019-03-06T07:46:34.004Z,11348.00
2019-03-06T07:47:33.907Z,11760.00
2019-03-06T07:48:33.816Z,12104.00
2019-03-06T07:49:33.736Z,11744.00
2019-03-06T07:50:33.658Z,11404.00
2019-03-06T07:51:33.579Z,11372.00
2019-03-06T07:52:33.488Z,11304.00
2019-03-06T07:53:33.406Z,11116.00
2019-03-06T07:54:33.364Z,10756.00
2019-03-06T07:55:33.245Z,10420.00
2019-03-06T07:56:33.162Z,10212.00
2019-03-06T07:57:33.081Z,10192.00
2019-03-06T07:58:33.022Z,10296.00
2019-03-06T07:59:32.905Z,10488.00
2019-03-06T08:00:32.818Z,10788.00
2019-03-06T08:01:32.753Z,11196.00
2019-03-06T08:02:32.646Z,11616.00
2019-03-06T08:03:32.560Z,12172.00
2019-03-06T08:04:32.488Z,12724.00
2019-03-06T08:05:32.399Z,13324.00
2019-03-06T08:06:32.329Z,13996.00
2019-03-06T08:07:32.238Z,14176.00
2019-03-06T08:08:32.155Z,14336.00
2019-03-06T08:09:32.075Z,14352.00
2019-03-06T08:10:31.981Z,14228.00
2019-03-06T08:11:31.920Z,14204.00
2019-03-06T08:12:31.814Z,14200.00
2019-03-06T08:13:31.742Z,14256.00
2019-03-06T08:14:31.652Z,14360.00
2019-03-06T08:15:31.573Z,14724.00
2019-03-06T08:16:31.500Z,15168.00
2019-03-06T08:17:31.409Z,15744.00
2019-03-06T08:18:31.317Z,16556.00
2019-03-06T08:19:31.237Z,17504.00
2019-03-06T08:20:31.150Z,18432.00
2019-03-06T08:21:31.085Z,19808.00
2019-03-06T08:22:30.986Z,21280.00
2019-03-06T08:23:30.901Z,21280.00
2019-03-06T08:24:30.847Z,22688.00
2019-03-06T08:25:30.736Z,24352.00
2019-03-06T08:26:30.688Z,27104.00
2019-03-06T08:27:30.611Z,29856.00
2019-03-06T08:28:30.487Z,30880.00
2019-03-06T08:29:30.404Z,31744.00
2019-03-06T08:30:30.327Z,30464.00
2019-03-06T08:31:30.258Z,30144.00
2019-03-06T08:32:30.158Z,27744.00
2019-03-06T08:33:30.083Z,27872.00
2019-03-06T08:34:30.003Z,27072.00
2019-03-06T08:35:29.915Z,27008.00
2019-03-06T08:36:29.850Z,26944.00
2019-03-06T08:37:29.745Z,26432.00
2019-03-06T08:38:29.671Z,26272.00
2019-03-06T08:39:29.589Z,26464.00
2019-03-06T08:40:29.504Z,27072.00
2019-03-06T08:41:29.433Z,28032.00
2019-03-06T08:42:29.346Z,27456.00
2019-03-06T08:43:29.262Z,25888.00
2019-03-06T08:44:29.175Z,26976.00
2019-03-06T08:45:29.104Z,27552.00
2019-03-06T08:46:29.025Z,29056.00
2019-03-06T08:47:28.932Z,27776.00
2019-03-06T08:48:28.852Z,27616.00
2019-03-06T08:49:28.766Z,25760.00
2019-03-06T08:50:28.687Z,27680.00
2019-03-06T08:51:28.668Z,29568.00
2019-03-06T08:52:28.527Z,29600.00
2019-03-06T08:53:28.440Z,30528.00
2019-03-06T08:54:28.364Z,25664.00
2019-03-06T08:55:28.278Z,23424.00
2019-03-06T08:56:28.217Z,23136.00
2019-03-06T08:57:28.121Z,22848.00
2019-03-06T08:58:28.048Z,22496.00
2019-03-06T08:59:27.968Z,22976.00
2019-03-06T09:00:27.879Z,23520.00
2019-03-06T09:01:27.811Z,23360.00
2019-03-06T09:02:27.707Z,23104.00
2019-03-06T09:03:27.636Z,22944.00
2019-03-06T09:04:27.545Z,22464.00
2019-03-06T09:05:27.469Z,21952.00
2019-03-06T09:06:27.389Z,21952.00
2019-03-06T09:07:27.322Z,22400.00
2019-03-06T09:08:27.223Z,23296.00
2019-03-06T09:09:27.142Z,24256.00
2019-03-06T09:10:27.068Z,25376.00
2019-03-06T09:11:26.976Z,25984.00
2019-03-06T09:12:26.914Z,26592.00
2019-03-06T09:13:26.815Z,27392.00
2019-03-06T09:14:26.731Z,28448.00
2019-03-06T09:15:26.660Z,30400.00
2019-03-06T09:16:26.568Z,31872.00
2019-03-06T09:17:26.839Z,30080.00
2019-03-06T09:18:26.404Z,30080.00
2019-03-06T09:19:26.322Z,31168.00
2019-03-06T09:20:35.987Z,30560.00
2019-03-06T09:21:26.167Z,32512.00
2019-03-06T09:22:26.098Z,32288.00
2019-03-06T09:23:26.002Z,30176.00
2019-03-06T09:24:25.922Z,28416.00
2019-03-06T09:25:25.838Z,27136.00
2019-03-06T09:26:25.760Z,27136.00
2019-03-06T09:27:25.690Z,26336.00
2019-03-06T09:28:25.596Z,26144.00
2019-03-06T09:29:25.515Z,25856.00
2019-03-06T09:30:25.429Z,26048.00
2019-03-06T09:31:25.357Z,25024.00
2019-03-06T09:32:25.279Z,24960.00
2019-03-06T09:33:25.187Z,24576.00
2019-03-06T09:34:25.105Z,24512.00
2019-03-06T09:35:25.036Z,25280.00
2019-03-06T09:36:24.953Z,25216.00
2019-03-06T09:37:24.894Z,25216.00
2019-03-06T09:38:24.778Z,29152.00
2019-03-06T09:39:24.705Z,28608.00
2019-03-06T09:40:24.615Z,31200.00
2019-03-06T09:41:24.549Z,32448.00
2019-03-06T09:42:24.467Z,36864.00
2019-03-06T09:43:24.383Z,33824.00
2019-03-06T09:44:24.290Z,41952.00
2019-03-06T09:45:24.212Z,34528.00
2019-03-06T09:46:24.138Z,31008.00
2019-03-06T09:47:24.061Z,28416.00
2019-03-06T09:48:23.970Z,26048.00
2019-03-06T09:49:23.897Z,24544.00
2019-03-06T09:50:23.808Z,24832.00
2019-03-06T09:51:23.726Z,26592.00
2019-03-06T09:52:23.663Z,29088.00
2019-03-06T09:53:23.565Z,32416.00
2019-03-06T09:54:23.486Z,35232.00
2019-03-06T09:55:23.409Z,37568.00
2019-03-06T09:56:23.332Z,40608.00
2019-03-06T09:57:23.253Z,42112.00
2019-03-06T09:58:23.160Z,44160.00
2019-03-06T09:59:23.088Z,43136.00
2019-03-06T10:00:23.017Z,40256.00
2019-03-06T10:01:22.943Z,41600.00
2019-03-06T10:02:22.854Z,45728.00
2019-03-06T10:03:22.758Z,49120.00
2019-03-06T10:04:22.694Z,45632.00
2019-03-06T10:05:22.642Z,44352.00
2019-03-06T10:06:22.525Z,39232.00
2019-03-06T10:07:22.457Z,36704.00
2019-03-06T10:08:22.360Z,35264.00
2019-03-06T10:09:22.274Z,33056.00
2019-03-06T10:10:22.194Z,31520.00
2019-03-06T10:11:22.119Z,30528.00
2019-03-06T10:12:22.052Z,29824.00
2019-03-06T10:13:21.952Z,29600.00
2019-03-06T10:14:21.882Z,29728.00
2019-03-06T10:15:21.798Z,29824.00
2019-03-06T10:16:23.186Z,30016.00
2019-03-06T10:17:21.655Z,30368.00
2019-03-06T10:18:21.552Z,31712.00
2019-03-06T10:19:21.482Z,30944.00
2019-03-06T10:20:25.055Z,30656.00
2019-03-06T10:21:21.309Z,31104.00
2019-03-06T10:22:21.242Z,30816.00
2019-03-06T10:23:21.157Z,30080.00
2019-03-06T10:24:21.075Z,30240.00
2019-03-06T10:25:29.769Z,30112.00
2019-03-06T10:26:20.917Z,29472.00
2019-03-06T10:27:20.866Z,29312.00
2019-03-06T10:28:27.572Z,29344.00
2019-03-06T10:29:20.679Z,29632.00
2019-03-06T10:30:20.594Z,30400.00
2019-03-06T10:31:20.517Z,30688.00
2019-03-06T10:32:20.426Z,30976.00
2019-03-06T10:33:20.366Z,31680.00
2019-03-06T10:34:20.268Z,33664.00
2019-03-06T10:35:20.212Z,38272.00
2019-03-06T10:36:20.109Z,38176.00
2019-03-06T10:37:20.031Z,37888.00
2019-03-06T10:38:19.961Z,37920.00
2019-03-06T10:39:19.872Z,39328.00
2019-03-06T10:40:19.793Z,39648.00
2019-03-06T10:41:19.707Z,40928.00
2019-03-06T10:42:19.624Z,37600.00
2019-03-06T10:43:19.559Z,39264.00
2019-03-06T10:44:19.466Z,42336.00
2019-03-06T10:45:19.378Z,37248.00
2019-03-06T10:46:19.307Z,41984.00
2019-03-06T10:47:19.226Z,36960.00
2019-03-06T10:48:19.154Z,32160.00
2019-03-06T10:49:19.072Z,29088.00
2019-03-06T10:50:26.245Z,27296.00
2019-03-06T10:51:18.902Z,26752.00
2019-03-06T10:52:18.831Z,26272.00
2019-03-06T10:53:18.750Z,25504.00
2019-03-06T10:54:18.666Z,23840.00
2019-03-06T10:55:18.581Z,21696.00
2019-03-06T10:56:18.499Z,19552.00
2019-03-06T10:57:18.424Z,17696.00
2019-03-06T10:58:18.359Z,16452.00
2019-03-06T10:59:18.252Z,16300.00
2019-03-06T11:00:18.173Z,16596.00
2019-03-06T11:01:18.098Z,16848.00
2019-03-06T11:02:18.014Z,16892.00
2019-03-06T11:03:17.946Z,17984.00
2019-03-06T11:04:17.864Z,20384.00
2019-03-06T11:05:17.770Z,22720.00
2019-03-06T11:06:17.692Z,24928.00
2019-03-06T11:07:17.614Z,26912.00
2019-03-06T11:08:17.542Z,27712.00
2019-03-06T11:09:17.447Z,27872.00
2019-03-06T11:10:23.714Z,27872.00
2019-03-06T11:11:17.289Z,28000.00
2019-03-06T11:12:17.208Z,28288.00
2019-03-06T11:13:17.141Z,28064.00
2019-03-06T11:14:17.050Z,27616.00
2019-03-06T11:15:16.954Z,26912.00
2019-03-06T11:16:17.955Z,26080.00
2019-03-06T11:17:16.807Z,25504.00
2019-03-06T11:18:16.729Z,25088.00
2019-03-06T11:19:16.635Z,24768.00
2019-03-06T11:20:16.563Z,24640.00
2019-03-06T11:21:16.474Z,24192.00
2019-03-06T11:22:16.403Z,23424.00
2019-03-06T11:23:16.331Z,22016.00
2019-03-06T11:24:16.238Z,20384.00
2019-03-06T11:25:16.552Z,19200.00
2019-03-06T11:26:16.077Z,18304.00
2019-03-06T11:27:15.986Z,17888.00
2019-03-06T11:28:15.929Z,18048.00
2019-03-06T11:29:15.829Z,18752.00
2019-03-06T11:30:15.754Z,19296.00
2019-03-06T11:31:15.668Z,19712.00
2019-03-06T11:32:15.588Z,20032.00
2019-03-06T11:33:15.517Z,20384.00
2019-03-06T11:34:15.429Z,21248.00
2019-03-06T11:35:15.342Z,21856.00
2019-03-06T11:36:15.263Z,22112.00
2019-03-06T11:37:15.189Z,22368.00
2019-03-06T11:38:15.111Z,23008.00
2019-03-06T11:39:15.016Z,23360.00
2019-03-06T11:40:14.946Z,23584.00
2019-03-06T11:41:14.857Z,24480.00
2019-03-06T11:42:14.781Z,25888.00
2019-03-06T11:43:14.704Z,27584.00
2019-03-06T11:44:14.627Z,29600.00
2019-03-06T11:45:14.528Z,32256.00
2019-03-06T11:46:14.447Z,32672.00
2019-03-06T11:47:14.380Z,32224.00
2019-03-06T11:48:14.306Z,31264.00
2019-03-06T11:49:14.201Z,31840.00
2019-03-06T11:50:14.122Z,28768.00
2019-03-06T11:51:14.049Z,25952.00
2019-03-06T11:52:13.967Z,23808.00
2019-03-06T11:53:13.884Z,22624.00
2019-03-06T11:54:13.816Z,22432.00
2019-03-06T11:55:13.722Z,23040.00
2019-03-06T11:56:13.639Z,23872.00
2019-03-06T11:57:13.579Z,24448.00
2019-03-06T11:58:13.486Z,24672.00
2019-03-06T11:59:13.804Z,24512.00
2019-03-06T12:00:13.312Z,24128.00
2019-03-06T12:01:13.241Z,23520.00
2019-03-06T12:02:13.154Z,23200.00
2019-03-06T12:03:13.079Z,23040.00
2019-03-06T12:04:13.007Z,22624.00
2019-03-06T12:05:12.919Z,21696.00
2019-03-06T12:06:12.830Z,20512.00
2019-03-06T12:07:12.763Z,19392.00
2019-03-06T12:08:12.667Z,18752.00
2019-03-06T12:09:12.605Z,18592.00
2019-03-06T12:10:12.505Z,18592.00
2019-03-06T12:11:12.424Z,18592.00
2019-03-06T12:12:12.348Z,18304.00
2019-03-06T12:13:12.261Z,17824.00
2019-03-06T12:14:12.219Z,17248.00
2019-03-06T12:15:12.116Z,16684.00
2019-03-06T12:16:12.021Z,16332.00
2019-03-06T12:17:11.935Z,15952.00
2019-03-06T12:18:11.862Z,15868.00
2019-03-06T12:19:11.785Z,16144.00
2019-03-06T12:20:11.695Z,16540.00
2019-03-06T12:21:11.615Z,16884.00
2019-03-06T12:22:11.530Z,17312.00
2019-03-06T12:23:11.455Z,18048.00
2019-03-06T12:24:13.090Z,19200.00
2019-03-06T12:25:11.289Z,20704.00
2019-03-06T12:26:11.207Z,22080.00
2019-03-06T12:27:11.130Z,22784.00
2019-03-06T12:28:11.044Z,22720.00
2019-03-06T12:29:10.977Z,22240.00